sensor_id;sensor_type;location;lat;lon;timestamp;temperature;humidity
19033;DHT22;9649;51.042;13.804;2024-02-23T00:04:03;11.50;1.00
19033;DHT22;9649;51.042;13.804;2024-02-23T00:09:12;11.60;99.90
19033;DHT22;9649;51.042;13.804;2024-02-23T00:14:22;11.80;1.00
19033;DHT22;9649;51.042;13.804;2024-02-23T00:19:38;11.90;1.00
19033;DHT22;9649;51.042;13.804;2024-02-23T00:24:43;11.90;1.00
19033;DHT22;9649;51.042;13.804;2024-02-23T00:29:51;11.90;1.00
19033;DHT22;9649;51.042;13.804;2024-02-23T00:34:56;11.90;1.00
19033;DHT22;9649;51.042;13.804;2024-02-23T00:40:02;11.90;99.90
19033;DHT22;9649;51.042;13.804;2024-02-23T00:45:11;11.90;1.00
19033;DHT22;9649;51.042;13.804;2024-02-23T00:50:16;11.90;1.00
19033;DHT22;9649;51.042;13.804;2024-02-23T00:55:22;11.80;1.00
19033;DHT22;9649;51.042;13.804;2024-02-23T01:00:38;11.60;99.90
19033;DHT22;9649;51.042;13.804;2024-02-23T01:05:43;11.60;99.90
19033;DHT22;9649;51.042;13.804;2024-02-23T01:10:47;11.60;1.00
19033;DHT22;9649;51.042;13.804;2024-02-23T01:15:54;11.50;1.00
19033;DHT22;9649;51.042;13.804;2024-02-23T01:21:06;11.50;1.00
19033;DHT22;9649;51.042;13.804;2024-02-23T01:26:10;11.40;1.00
19033;DHT22;9649;51.042;13.804;2024-02-23T01:31:17;11.50;1.00
19033;DHT22;9649;51.042;13.804;2024-02-23T01:36:24;11.70;1.00
19033;DHT22;9649;51.042;13.804;2024-02-23T01:41:28;12.40;1.00
19033;DHT22;9649;51.042;13.804;2024-02-23T01:46:32;12.70;99.90
19033;DHT22;9649;51.042;13.804;2024-02-23T01:51:35;12.80;99.90
19033;DHT22;9649;51.042;13.804;2024-02-23T01:56:46;12.80;99.90
19033;DHT22;9649;51.042;13.804;2024-02-23T02:01:50;12.60;99.90
19033;DHT22;9649;51.042;13.804;2024-02-23T02:06:55;12.60;99.90
19033;DHT22;9649;51.042;13.804;2024-02-23T02:12:04;12.60;99.90
19033;DHT22;9649;51.042;13.804;2024-02-23T02:17:23;12.70;99.90
19033;DHT22;9649;51.042;13.804;2024-02-23T02:22:41;12.60;99.90
19033;DHT22;9649;51.042;13.804;2024-02-23T02:27:56;12.60;99.90
19033;DHT22;9649;51.042;13.804;2024-02-23T02:33:30;12.40;44.90
19033;DHT22;9649;51.042;13.804;2024-02-23T02:38:59;12.30;1.00
19033;DHT22;9649;51.042;13.804;2024-02-23T02:44:10;12.20;1.00
19033;DHT22;9649;51.042;13.804;2024-02-23T02:49:39;12.20;1.00
19033;DHT22;9649;51.042;13.804;2024-02-23T02:54:58;12.30;1.00
19033;DHT22;9649;51.042;13.804;2024-02-23T03:00:07;12.20;1.00
19033;DHT22;9649;51.042;13.804;2024-02-23T03:05:21;12.20;1.00
19033;DHT22;9649;51.042;13.804;2024-02-23T03:10:30;12.20;1.00
19033;DHT22;9649;51.042;13.804;2024-02-23T03:15:42;12.10;1.00
19033;DHT22;9649;51.042;13.804;2024-02-23T03:20:56;11.90;1.00
19033;DHT22;9649;51.042;13.804;2024-02-23T03:26:06;12.10;1.00
19033;DHT22;9649;51.042;13.804;2024-02-23T03:31:18;12.00;1.00
19033;DHT22;9649;51.042;13.804;2024-02-23T03:36:29;12.00;1.00
19033;DHT22;9649;51.042;13.804;2024-02-23T03:41:42;11.80;1.00
19033;DHT22;9649;51.042;13.804;2024-02-23T03:47:04;11.50;1.00
19033;DHT22;9649;51.042;13.804;2024-02-23T03:52:25;11.60;1.00
19033;DHT22;9649;51.042;13.804;2024-02-23T04:03:08;11.50;1.00
19033;DHT22;9649;51.042;13.804;2024-02-23T04:08:22;11.50;1.00
19033;DHT22;9649;51.042;13.804;2024-02-23T04:13:51;11.30;1.00
19033;DHT22;9649;51.042;13.804;2024-02-23T04:19:00;11.20;1.00
19033;DHT22;9649;51.042;13.804;2024-02-23T04:24:19;11.10;1.00
19033;DHT22;9649;51.042;13.804;2024-02-23T04:29:32;10.90;1.00
19033;DHT22;9649;51.042;13.804;2024-02-23T04:34:50;10.70;1.00
19033;DHT22;9649;51.042;13.804;2024-02-23T04:40:00;10.60;1.00
19033;DHT22;9649;51.042;13.804;2024-02-23T04:45:04;10.50;1.00
19033;DHT22;9649;51.042;13.804;2024-02-23T04:50:08;10.40;1.00
19033;DHT22;9649;51.042;13.804;2024-02-23T04:55:13;10.40;1.00
19033;DHT22;9649;51.042;13.804;2024-02-23T05:00:16;10.30;1.00
19033;DHT22;9649;51.042;13.804;2024-02-23T05:05:19;10.10;1.00
19033;DHT22;9649;51.042;13.804;2024-02-23T05:10:25;10.20;1.00
19033;DHT22;9649;51.042;13.804;2024-02-23T05:15:27;10.10;1.00
19033;DHT22;9649;51.042;13.804;2024-02-23T05:20:30;10.10;1.00
19033;DHT22;9649;51.042;13.804;2024-02-23T05:25:34;10.10;1.00
19033;DHT22;9649;51.042;13.804;2024-02-23T05:30:37;10.10;1.00
19033;DHT22;9649;51.042;13.804;2024-02-23T05:35:40;10.00;1.00
19033;DHT22;9649;51.042;13.804;2024-02-23T05:40:44;9.90;1.00
19033;DHT22;9649;51.042;13.804;2024-02-23T05:45:47;9.80;1.00
19033;DHT22;9649;51.042;13.804;2024-02-23T05:50:51;9.80;1.00
19033;DHT22;9649;51.042;13.804;2024-02-23T05:55:55;9.70;1.00
19033;DHT22;9649;51.042;13.804;2024-02-23T06:01:00;9.80;1.00
19033;DHT22;9649;51.042;13.804;2024-02-23T06:06:07;9.70;1.00
19033;DHT22;9649;51.042;13.804;2024-02-23T06:11:11;9.70;1.00
19033;DHT22;9649;51.042;13.804;2024-02-23T06:16:14;9.60;1.00
19033;DHT22;9649;51.042;13.804;2024-02-23T06:21:17;9.50;1.00
19033;DHT22;9649;51.042;13.804;2024-02-23T06:26:21;9.50;1.00
19033;DHT22;9649;51.042;13.804;2024-02-23T06:31:24;9.40;1.00
19033;DHT22;9649;51.042;13.804;2024-02-23T06:36:27;9.30;1.00
19033;DHT22;9649;51.042;13.804;2024-02-23T06:41:32;9.40;1.00
19033;DHT22;9649;51.042;13.804;2024-02-23T06:46:35;9.40;1.00
19033;DHT22;9649;51.042;13.804;2024-02-23T06:51:39;9.30;1.00
19033;DHT22;9649;51.042;13.804;2024-02-23T06:56:43;9.30;1.00
19033;DHT22;9649;51.042;13.804;2024-02-23T07:01:50;9.50;1.00
19033;DHT22;9649;51.042;13.804;2024-02-23T07:06:53;9.40;1.00
19033;DHT22;9649;51.042;13.804;2024-02-23T07:11:58;9.50;1.00
19033;DHT22;9649;51.042;13.804;2024-02-23T07:17:01;9.70;1.00
19033;DHT22;9649;51.042;13.804;2024-02-23T07:22:04;9.80;1.00
19033;DHT22;9649;51.042;13.804;2024-02-23T07:27:09;9.80;1.00
19033;DHT22;9649;51.042;13.804;2024-02-23T07:32:12;9.90;1.00
19033;DHT22;9649;51.042;13.804;2024-02-23T07:37:15;9.90;1.00
19033;DHT22;9649;51.042;13.804;2024-02-23T07:42:19;9.90;1.00
19033;DHT22;9649;51.042;13.804;2024-02-23T07:47:22;9.90;1.00
19033;DHT22;9649;51.042;13.804;2024-02-23T07:52:25;9.90;1.00
19033;DHT22;9649;51.042;13.804;2024-02-23T07:57:29;10.00;1.00
19033;DHT22;9649;51.042;13.804;2024-02-23T08:02:33;10.10;1.00
19033;DHT22;9649;51.042;13.804;2024-02-23T08:07:36;10.10;1.00
19033;DHT22;9649;51.042;13.804;2024-02-23T08:12:40;10.10;1.00
19033;DHT22;9649;51.042;13.804;2024-02-23T08:17:44;10.10;1.00
19033;DHT22;9649;51.042;13.804;2024-02-23T08:22:47;10.10;1.00
19033;DHT22;9649;51.042;13.804;2024-02-23T08:27:51;10.20;1.00
19033;DHT22;9649;51.042;13.804;2024-02-23T08:32:54;10.10;1.00
19033;DHT22;9649;51.042;13.804;2024-02-23T08:37:57;10.10;1.00
19033;DHT22;9649;51.042;13.804;2024-02-23T08:43:01;10.10;1.00
19033;DHT22;9649;51.042;13.804;2024-02-23T08:48:05;10.10;1.00
19033;DHT22;9649;51.042;13.804;2024-02-23T08:53:09;10.00;1.00
19033;DHT22;9649;51.042;13.804;2024-02-23T08:58:25;10.10;1.00
19033;DHT22;9649;51.042;13.804;2024-02-23T09:03:28;10.20;1.00
19033;DHT22;9649;51.042;13.804;2024-02-23T09:08:34;10.70;1.00
19033;DHT22;9649;51.042;13.804;2024-02-23T09:13:38;11.40;1.00
19033;DHT22;9649;51.042;13.804;2024-02-23T09:18:46;12.50;1.00
19033;DHT22;9649;51.042;13.804;2024-02-23T09:23:48;13.40;1.00
19033;DHT22;9649;51.042;13.804;2024-02-23T09:28:52;14.80;99.90
19033;DHT22;9649;51.042;13.804;2024-02-23T09:33:56;15.50;99.90
19033;DHT22;9649;51.042;13.804;2024-02-23T09:38:59;15.40;99.90
19033;DHT22;9649;51.042;13.804;2024-02-23T09:44:04;15.00;99.90
19033;DHT22;9649;51.042;13.804;2024-02-23T09:49:11;14.90;99.90
19033;DHT22;9649;51.042;13.804;2024-02-23T09:54:15;14.90;99.90
19033;DHT22;9649;51.042;13.804;2024-02-23T09:59:25;14.50;99.90
19033;DHT22;9649;51.042;13.804;2024-02-23T10:04:33;15.80;99.90
19033;DHT22;9649;51.042;13.804;2024-02-23T10:09:36;17.70;99.90
19033;DHT22;9649;51.042;13.804;2024-02-23T10:14:42;20.00;99.90
19033;DHT22;9649;51.042;13.804;2024-02-23T10:19:45;19.40;99.90
19033;DHT22;9649;51.042;13.804;2024-02-23T10:24:49;18.60;99.90
19033;DHT22;9649;51.042;13.804;2024-02-23T10:29:53;16.40;99.90
19033;DHT22;9649;51.042;13.804;2024-02-23T10:35:00;14.70;99.90
19033;DHT22;9649;51.042;13.804;2024-02-23T10:40:06;14.00;99.90
19033;DHT22;9649;51.042;13.804;2024-02-23T10:45:12;13.80;99.90
19033;DHT22;9649;51.042;13.804;2024-02-23T10:50:15;14.40;99.90
19033;DHT22;9649;51.042;13.804;2024-02-23T10:55:18;14.80;99.90
19033;DHT22;9649;51.042;13.804;2024-02-23T11:00:24;14.40;99.90
19033;DHT22;9649;51.042;13.804;2024-02-23T11:05:28;13.70;99.90
19033;DHT22;9649;51.042;13.804;2024-02-23T11:10:31;13.10;99.90
19033;DHT22;9649;51.042;13.804;2024-02-23T11:15:45;12.60;99.90
19033;DHT22;9649;51.042;13.804;2024-02-23T11:20:54;12.50;99.90
19033;DHT22;9649;51.042;13.804;2024-02-23T11:26:06;12.50;99.90
19033;DHT22;9649;51.042;13.804;2024-02-23T11:31:15;12.80;99.90
19033;DHT22;9649;51.042;13.804;2024-02-23T11:36:28;13.90;99.90
19033;DHT22;9649;51.042;13.804;2024-02-23T11:41:31;15.20;99.90
19033;DHT22;9649;51.042;13.804;2024-02-23T11:46:38;14.50;99.90
19033;DHT22;9649;51.042;13.804;2024-02-23T11:51:41;13.40;99.90
19033;DHT22;9649;51.042;13.804;2024-02-23T11:56:44;13.00;99.90
19033;DHT22;9649;51.042;13.804;2024-02-23T12:01:49;12.90;99.90
19033;DHT22;9649;51.042;13.804;2024-02-23T12:06:52;12.80;99.90
19033;DHT22;9649;51.042;13.804;2024-02-23T12:11:55;13.10;99.90
19033;DHT22;9649;51.042;13.804;2024-02-23T12:17:02;13.20;99.90
19033;DHT22;9649;51.042;13.804;2024-02-23T12:22:05;13.50;99.90
19033;DHT22;9649;51.042;13.804;2024-02-23T12:27:07;13.90;99.90
19033;DHT22;9649;51.042;13.804;2024-02-23T12:32:12;14.20;99.90
19033;DHT22;9649;51.042;13.804;2024-02-23T12:37:15;14.40;99.90
19033;DHT22;9649;51.042;13.804;2024-02-23T12:42:18;14.70;99.90
19033;DHT22;9649;51.042;13.804;2024-02-23T12:47:22;16.00;99.90
19033;DHT22;9649;51.042;13.804;2024-02-23T12:52:25;17.20;99.90
19033;DHT22;9649;51.042;13.804;2024-02-23T12:57:28;17.80;99.90
19033;DHT22;9649;51.042;13.804;2024-02-23T13:02:32;16.40;99.90
19033;DHT22;9649;51.042;13.804;2024-02-23T13:07:35;15.70;99.90
19033;DHT22;9649;51.042;13.804;2024-02-23T13:12:40;15.80;99.90
19033;DHT22;9649;51.042;13.804;2024-02-23T13:17:44;15.50;99.90
19033;DHT22;9649;51.042;13.804;2024-02-23T13:22:47;15.20;99.90
19033;DHT22;9649;51.042;13.804;2024-02-23T13:27:49;15.10;99.90
19033;DHT22;9649;51.042;13.804;2024-02-23T13:32:54;15.40;99.90
19033;DHT22;9649;51.042;13.804;2024-02-23T13:37:57;15.20;99.90
19033;DHT22;9649;51.042;13.804;2024-02-23T13:43:00;15.20;99.90
19033;DHT22;9649;51.042;13.804;2024-02-23T13:48:05;15.90;99.90
19033;DHT22;9649;51.042;13.804;2024-02-23T13:53:08;15.90;99.90
19033;DHT22;9649;51.042;13.804;2024-02-23T13:58:11;15.00;99.90
19033;DHT22;9649;51.042;13.804;2024-02-23T14:03:17;14.80;99.90
19033;DHT22;9649;51.042;13.804;2024-02-23T14:08:20;14.70;99.90
19033;DHT22;9649;51.042;13.804;2024-02-23T14:13:23;13.90;99.90
19033;DHT22;9649;51.042;13.804;2024-02-23T14:18:27;13.10;99.90
19033;DHT22;9649;51.042;13.804;2024-02-23T14:23:30;12.80;99.90
19033;DHT22;9649;51.042;13.804;2024-02-23T14:28:33;12.50;99.90
19033;DHT22;9649;51.042;13.804;2024-02-23T14:33:37;12.40;99.90
19033;DHT22;9649;51.042;13.804;2024-02-23T14:38:41;12.40;99.90
19033;DHT22;9649;51.042;13.804;2024-02-23T14:43:44;12.40;99.90
19033;DHT22;9649;51.042;13.804;2024-02-23T14:48:48;12.30;99.90
19033;DHT22;9649;51.042;13.804;2024-02-23T14:53:51;12.10;99.90
19033;DHT22;9649;51.042;13.804;2024-02-23T14:58:54;12.00;99.90
19033;DHT22;9649;51.042;13.804;2024-02-23T15:03:58;11.90;99.90
19033;DHT22;9649;51.042;13.804;2024-02-23T15:09:00;11.80;99.90
19033;DHT22;9649;51.042;13.804;2024-02-23T15:14:04;11.60;99.90
19033;DHT22;9649;51.042;13.804;2024-02-23T15:19:09;11.60;99.90
19033;DHT22;9649;51.042;13.804;2024-02-23T15:24:12;11.40;99.90
19033;DHT22;9649;51.042;13.804;2024-02-23T15:29:15;11.30;99.90
19033;DHT22;9649;51.042;13.804;2024-02-23T15:34:19;11.30;99.90
19033;DHT22;9649;51.042;13.804;2024-02-23T15:39:23;11.20;99.90
19033;DHT22;9649;51.042;13.804;2024-02-23T15:44:26;11.00;99.90
19033;DHT22;9649;51.042;13.804;2024-02-23T15:49:33;10.80;99.90
19033;DHT22;9649;51.042;13.804;2024-02-23T15:54:56;10.70;99.90
19033;DHT22;9649;51.042;13.804;2024-02-23T15:59:58;10.50;99.90
19033;DHT22;9649;51.042;13.804;2024-02-23T16:05:06;10.40;1.00
19033;DHT22;9649;51.042;13.804;2024-02-23T16:10:09;10.30;1.00
19033;DHT22;9649;51.042;13.804;2024-02-23T16:15:14;10.10;1.00
19033;DHT22;9649;51.042;13.804;2024-02-23T16:20:18;10.00;1.00
19033;DHT22;9649;51.042;13.804;2024-02-23T16:25:21;10.00;1.00
19033;DHT22;9649;51.042;13.804;2024-02-23T16:30:24;9.90;1.00
19033;DHT22;9649;51.042;13.804;2024-02-23T16:35:28;9.90;1.00
19033;DHT22;9649;51.042;13.804;2024-02-23T16:40:31;9.80;1.00
19033;DHT22;9649;51.042;13.804;2024-02-23T17:06:00;9.50;1.00
19033;DHT22;9649;51.042;13.804;2024-02-23T17:12:34;9.30;1.00
19033;DHT22;9649;51.042;13.804;2024-02-23T17:18:18;9.40;1.00
19033;DHT22;9649;51.042;13.804;2024-02-23T17:38:46;8.90;1.00
19033;DHT22;9649;51.042;13.804;2024-02-23T17:44:14;9.00;1.00
19033;DHT22;9649;51.042;13.804;2024-02-23T21:23:06;7.40;99.90
19033;DHT22;9649;51.042;13.804;2024-02-23T21:31:09;7.40;99.90
19033;DHT22;9649;51.042;13.804;2024-02-23T22:48:17;7.30;1.00
19033;DHT22;9649;51.042;13.804;2024-02-23T22:53:31;7.00;1.00
19033;DHT22;9649;51.042;13.804;2024-02-23T22:58:55;7.00;1.00
19033;DHT22;9649;51.042;13.804;2024-02-23T23:10:26;6.70;99.90
19033;DHT22;9649;51.042;13.804;2024-02-23T23:15:47;6.80;1.00
19033;DHT22;9649;51.042;13.804;2024-02-23T23:20:50;6.90;1.00
19033;DHT22;9649;51.042;13.804;2024-02-23T23:25:56;7.00;1.00
19033;DHT22;9649;51.042;13.804;2024-02-23T23:31:00;7.20;1.00
19033;DHT22;9649;51.042;13.804;2024-02-23T23:36:03;7.30;1.00
19033;DHT22;9649;51.042;13.804;2024-02-23T23:41:08;7.30;1.00
19033;DHT22;9649;51.042;13.804;2024-02-23T23:46:11;7.20;1.00
19033;DHT22;9649;51.042;13.804;2024-02-23T23:51:14;7.20;1.00
19033;DHT22;9649;51.042;13.804;2024-02-23T23:56:23;7.10;1.00
